sensor_id;sensor_type;location;lat;lon;timestamp;temperature;humidity
52273;DHT22;38227;50.942;4.016;2022-11-25T00:01:52;11.50;99.90
52273;DHT22;38227;50.942;4.016;2022-11-25T00:04:23;11.50;99.90
52273;DHT22;38227;50.942;4.016;2022-11-25T00:06:54;11.50;99.90
52273;DHT22;38227;50.942;4.016;2022-11-25T00:09:35;11.40;99.90
52273;DHT22;38227;50.942;4.016;2022-11-25T00:12:07;11.40;99.90
52273;DHT22;38227;50.942;4.016;2022-11-25T00:14:48;11.30;99.90
52273;DHT22;38227;50.942;4.016;2022-11-25T00:17:20;11.30;99.90
52273;DHT22;38227;50.942;4.016;2022-11-25T00:20:02;11.20;99.90
52273;DHT22;38227;50.942;4.016;2022-11-25T00:22:34;11.20;99.90
52273;DHT22;38227;50.942;4.016;2022-11-25T00:25:09;11.10;99.90
52273;DHT22;38227;50.942;4.016;2022-11-25T00:27:45;11.10;99.90
52273;DHT22;38227;50.942;4.016;2022-11-25T00:30:16;10.90;99.90
52273;DHT22;38227;50.942;4.016;2022-11-25T00:32:52;10.90;99.90
52273;DHT22;38227;50.942;4.016;2022-11-25T00:35:30;10.90;99.90
52273;DHT22;38227;50.942;4.016;2022-11-25T00:38:00;10.80;99.90
52273;DHT22;38227;50.942;4.016;2022-11-25T00:40:44;11.00;99.90
52273;DHT22;38227;50.942;4.016;2022-11-25T00:43:35;10.90;99.90
52273;DHT22;38227;50.942;4.016;2022-11-25T00:46:24;11.00;99.90
52273;DHT22;38227;50.942;4.016;2022-11-25T00:48:57;11.00;99.90
52273;DHT22;38227;50.942;4.016;2022-11-25T00:51:32;10.90;99.90
52273;DHT22;38227;50.942;4.016;2022-11-25T00:54:04;10.80;99.90
52273;DHT22;38227;50.942;4.016;2022-11-25T00:56:40;10.80;99.90
52273;DHT22;38227;50.942;4.016;2022-11-25T00:59:15;10.80;99.90
52273;DHT22;38227;50.942;4.016;2022-11-25T01:01:48;10.80;99.90
52273;DHT22;38227;50.942;4.016;2022-11-25T01:04:48;10.60;99.90
52273;DHT22;38227;50.942;4.016;2022-11-25T01:07:27;10.60;99.90
52273;DHT22;38227;50.942;4.016;2022-11-25T01:10:00;10.60;99.90
52273;DHT22;38227;50.942;4.016;2022-11-25T01:12:49;10.50;99.90
52273;DHT22;38227;50.942;4.016;2022-11-25T01:15:29;10.20;99.90
52273;DHT22;38227;50.942;4.016;2022-11-25T01:18:11;10.20;99.90
52273;DHT22;38227;50.942;4.016;2022-11-25T01:20:43;10.20;99.90
52273;DHT22;38227;50.942;4.016;2022-11-25T01:23:14;10.40;99.90
52273;DHT22;38227;50.942;4.016;2022-11-25T01:25:50;10.60;99.90
52273;DHT22;38227;50.942;4.016;2022-11-25T01:28:47;10.60;99.90
52273;DHT22;38227;50.942;4.016;2022-11-25T01:31:24;10.60;99.90
52273;DHT22;38227;50.942;4.016;2022-11-25T01:33:58;10.60;99.90
52273;DHT22;38227;50.942;4.016;2022-11-25T01:36:38;10.50;99.90
52273;DHT22;38227;50.942;4.016;2022-11-25T01:39:18;10.50;99.90
52273;DHT22;38227;50.942;4.016;2022-11-25T01:42:04;10.70;99.90
52273;DHT22;38227;50.942;4.016;2022-11-25T01:44:35;10.70;99.90
52273;DHT22;38227;50.942;4.016;2022-11-25T01:47:21;10.80;99.90
52273;DHT22;38227;50.942;4.016;2022-11-25T01:50:04;10.70;99.90
52273;DHT22;38227;50.942;4.016;2022-11-25T01:52:37;10.70;99.90
52273;DHT22;38227;50.942;4.016;2022-11-25T01:55:32;10.60;99.90
52273;DHT22;38227;50.942;4.016;2022-11-25T01:58:17;10.50;99.90
52273;DHT22;38227;50.942;4.016;2022-11-25T02:00:57;10.30;99.90
52273;DHT22;38227;50.942;4.016;2022-11-25T02:03:33;10.10;99.90
52273;DHT22;38227;50.942;4.016;2022-11-25T02:06:20;10.10;99.90
52273;DHT22;38227;50.942;4.016;2022-11-25T02:08:55;10.30;99.90
52273;DHT22;38227;50.942;4.016;2022-11-25T02:11:29;10.40;99.90
52273;DHT22;38227;50.942;4.016;2022-11-25T02:14:00;10.60;99.90
52273;DHT22;38227;50.942;4.016;2022-11-25T02:16:50;10.50;99.90
52273;DHT22;38227;50.942;4.016;2022-11-25T02:19:27;10.50;99.90
52273;DHT22;38227;50.942;4.016;2022-11-25T02:22:40;10.70;99.90
52273;DHT22;38227;50.942;4.016;2022-11-25T02:25:23;10.80;99.90
52273;DHT22;38227;50.942;4.016;2022-11-25T02:30:56;10.70;99.90
52273;DHT22;38227;50.942;4.016;2022-11-25T02:33:31;10.60;99.90
52273;DHT22;38227;50.942;4.016;2022-11-25T02:36:06;10.40;99.90
52273;DHT22;38227;50.942;4.016;2022-11-25T02:38:57;10.20;99.90
52273;DHT22;38227;50.942;4.016;2022-11-25T02:41:53;10.20;99.90
52273;DHT22;38227;50.942;4.016;2022-11-25T02:44:33;10.10;99.90
52273;DHT22;38227;50.942;4.016;2022-11-25T02:47:01;10.10;99.90
52273;DHT22;38227;50.942;4.016;2022-11-25T02:49:40;10.10;99.90
52273;DHT22;38227;50.942;4.016;2022-11-25T02:52:10;10.10;99.90
52273;DHT22;38227;50.942;4.016;2022-11-25T02:54:38;10.00;99.90
52273;DHT22;38227;50.942;4.016;2022-11-25T02:57:14;10.00;99.90
52273;DHT22;38227;50.942;4.016;2022-11-25T02:59:43;9.90;99.90
52273;DHT22;38227;50.942;4.016;2022-11-25T03:02:16;9.80;99.90
52273;DHT22;38227;50.942;4.016;2022-11-25T03:04:49;9.80;99.90
52273;DHT22;38227;50.942;4.016;2022-11-25T03:07:21;9.80;99.90
52273;DHT22;38227;50.942;4.016;2022-11-25T03:09:53;9.80;99.90
52273;DHT22;38227;50.942;4.016;2022-11-25T03:12:25;9.80;99.90
52273;DHT22;38227;50.942;4.016;2022-11-25T03:14:58;9.80;99.90
52273;DHT22;38227;50.942;4.016;2022-11-25T03:17:35;9.80;99.90
52273;DHT22;38227;50.942;4.016;2022-11-25T03:20:08;9.80;99.90
52273;DHT22;38227;50.942;4.016;2022-11-25T03:22:54;9.80;99.90
52273;DHT22;38227;50.942;4.016;2022-11-25T03:25:28;9.90;99.90
52273;DHT22;38227;50.942;4.016;2022-11-25T03:28:10;9.90;99.90
52273;DHT22;38227;50.942;4.016;2022-11-25T03:30:50;10.00;99.90
52273;DHT22;38227;50.942;4.016;2022-11-25T03:33:21;9.90;99.90
52273;DHT22;38227;50.942;4.016;2022-11-25T03:35:56;10.00;99.90
52273;DHT22;38227;50.942;4.016;2022-11-25T03:38:45;9.90;99.90
52273;DHT22;38227;50.942;4.016;2022-11-25T03:41:23;9.90;99.90
52273;DHT22;38227;50.942;4.016;2022-11-25T03:44:01;10.00;99.90
52273;DHT22;38227;50.942;4.016;2022-11-25T03:46:37;10.00;99.90
52273;DHT22;38227;50.942;4.016;2022-11-25T03:49:08;10.00;99.90
52273;DHT22;38227;50.942;4.016;2022-11-25T03:51:49;10.10;99.90
52273;DHT22;38227;50.942;4.016;2022-11-25T03:54:20;10.10;99.90
52273;DHT22;38227;50.942;4.016;2022-11-25T03:56:56;10.20;99.90
52273;DHT22;38227;50.942;4.016;2022-11-25T03:59:32;10.10;99.90
52273;DHT22;38227;50.942;4.016;2022-11-25T04:02:03;10.10;99.90
52273;DHT22;38227;50.942;4.016;2022-11-25T04:04:50;10.20;99.90
52273;DHT22;38227;50.942;4.016;2022-11-25T04:07:31;10.20;99.90
52273;DHT22;38227;50.942;4.016;2022-11-25T04:10:07;10.20;99.90
52273;DHT22;38227;50.942;4.016;2022-11-25T04:12:46;10.20;99.90
52273;DHT22;38227;50.942;4.016;2022-11-25T04:15:28;10.20;99.90
52273;DHT22;38227;50.942;4.016;2022-11-25T04:17:58;10.30;99.90
52273;DHT22;38227;50.942;4.016;2022-11-25T04:20:46;10.20;99.90
52273;DHT22;38227;50.942;4.016;2022-11-25T04:23:18;10.30;99.90
52273;DHT22;38227;50.942;4.016;2022-11-25T04:25:53;10.20;99.90
52273;DHT22;38227;50.942;4.016;2022-11-25T04:28:34;10.20;99.90
52273;DHT22;38227;50.942;4.016;2022-11-25T04:31:06;10.20;99.90
52273;DHT22;38227;50.942;4.016;2022-11-25T04:33:42;10.20;99.90
52273;DHT22;38227;50.942;4.016;2022-11-25T04:36:21;10.20;99.90
52273;DHT22;38227;50.942;4.016;2022-11-25T04:39:07;10.10;99.90
52273;DHT22;38227;50.942;4.016;2022-11-25T04:41:41;10.00;99.90
52273;DHT22;38227;50.942;4.016;2022-11-25T04:44:37;10.00;99.90
52273;DHT22;38227;50.942;4.016;2022-11-25T04:47:19;10.00;99.90
52273;DHT22;38227;50.942;4.016;2022-11-25T04:49:50;10.10;99.90
52273;DHT22;38227;50.942;4.016;2022-11-25T04:52:48;10.10;99.90
52273;DHT22;38227;50.942;4.016;2022-11-25T04:55:27;10.10;99.90
52273;DHT22;38227;50.942;4.016;2022-11-25T04:58:08;10.10;99.90
52273;DHT22;38227;50.942;4.016;2022-11-25T05:00:50;10.10;99.90
52273;DHT22;38227;50.942;4.016;2022-11-25T05:03:32;10.10;99.90
52273;DHT22;38227;50.942;4.016;2022-11-25T05:06:07;10.20;99.90
52273;DHT22;38227;50.942;4.016;2022-11-25T05:08:48;10.20;99.90
52273;DHT22;38227;50.942;4.016;2022-11-25T05:11:39;10.20;99.90
52273;DHT22;38227;50.942;4.016;2022-11-25T05:14:16;10.10;99.90
52273;DHT22;38227;50.942;4.016;2022-11-25T05:16:54;10.20;99.90
52273;DHT22;38227;50.942;4.016;2022-11-25T05:19:33;10.20;99.90
52273;DHT22;38227;50.942;4.016;2022-11-25T05:22:02;10.20;99.90
52273;DHT22;38227;50.942;4.016;2022-11-25T05:24:34;10.20;99.90
52273;DHT22;38227;50.942;4.016;2022-11-25T05:27:02;10.10;99.90
52273;DHT22;38227;50.942;4.016;2022-11-25T05:29:41;10.10;99.90
52273;DHT22;38227;50.942;4.016;2022-11-25T05:32:11;10.00;99.90
52273;DHT22;38227;50.942;4.016;2022-11-25T05:34:41;10.00;99.90
52273;DHT22;38227;50.942;4.016;2022-11-25T05:37:11;9.90;99.90
52273;DHT22;38227;50.942;4.016;2022-11-25T05:39:42;9.90;99.90
52273;DHT22;38227;50.942;4.016;2022-11-25T05:42:13;9.90;99.90
52273;DHT22;38227;50.942;4.016;2022-11-25T05:44:46;9.80;99.90
52273;DHT22;38227;50.942;4.016;2022-11-25T05:47:27;9.90;99.90
52273;DHT22;38227;50.942;4.016;2022-11-25T05:50:02;9.90;99.90
52273;DHT22;38227;50.942;4.016;2022-11-25T05:52:31;9.90;99.90
52273;DHT22;38227;50.942;4.016;2022-11-25T05:55:04;10.00;99.90
52273;DHT22;38227;50.942;4.016;2022-11-25T05:57:34;9.90;99.90
52273;DHT22;38227;50.942;4.016;2022-11-25T06:00:07;9.90;99.90
52273;DHT22;38227;50.942;4.016;2022-11-25T06:02:37;9.80;99.90
52273;DHT22;38227;50.942;4.016;2022-11-25T06:05:15;9.70;99.90
52273;DHT22;38227;50.942;4.016;2022-11-25T06:07:48;9.80;99.90
52273;DHT22;38227;50.942;4.016;2022-11-25T06:10:22;9.80;99.90
52273;DHT22;38227;50.942;4.016;2022-11-25T06:12:50;9.70;99.90
52273;DHT22;38227;50.942;4.016;2022-11-25T06:15:29;9.60;99.90
52273;DHT22;38227;50.942;4.016;2022-11-25T06:17:57;9.60;99.90
52273;DHT22;38227;50.942;4.016;2022-11-25T06:20:28;9.50;99.90
52273;DHT22;38227;50.942;4.016;2022-11-25T06:23:04;9.50;99.90
52273;DHT22;38227;50.942;4.016;2022-11-25T06:25:37;9.50;99.90
52273;DHT22;38227;50.942;4.016;2022-11-25T06:28:11;9.50;99.90
52273;DHT22;38227;50.942;4.016;2022-11-25T06:30:44;9.40;99.90
52273;DHT22;38227;50.942;4.016;2022-11-25T06:33:25;9.40;99.90
52273;DHT22;38227;50.942;4.016;2022-11-25T06:36:02;9.40;99.90
52273;DHT22;38227;50.942;4.016;2022-11-25T06:38:55;9.40;99.90
52273;DHT22;38227;50.942;4.016;2022-11-25T06:41:34;9.40;99.90
52273;DHT22;38227;50.942;4.016;2022-11-25T06:44:05;9.40;99.90
52273;DHT22;38227;50.942;4.016;2022-11-25T06:46:41;9.40;99.90
52273;DHT22;38227;50.942;4.016;2022-11-25T06:49:18;9.40;99.90
52273;DHT22;38227;50.942;4.016;2022-11-25T06:51:54;9.40;99.90
52273;DHT22;38227;50.942;4.016;2022-11-25T06:54:31;9.40;99.90
52273;DHT22;38227;50.942;4.016;2022-11-25T06:57:01;9.40;99.90
52273;DHT22;38227;50.942;4.016;2022-11-25T06:59:34;9.40;99.90
52273;DHT22;38227;50.942;4.016;2022-11-25T07:02:13;9.30;99.90
52273;DHT22;38227;50.942;4.016;2022-11-25T07:04:44;9.30;99.90
52273;DHT22;38227;50.942;4.016;2022-11-25T07:07:13;9.30;99.90
52273;DHT22;38227;50.942;4.016;2022-11-25T07:09:41;9.30;99.90
52273;DHT22;38227;50.942;4.016;2022-11-25T07:12:11;9.30;99.90
52273;DHT22;38227;50.942;4.016;2022-11-25T07:14:39;9.30;99.90
52273;DHT22;38227;50.942;4.016;2022-11-25T07:17:12;9.40;99.90
52273;DHT22;38227;50.942;4.016;2022-11-25T07:19:51;9.30;99.90
52273;DHT22;38227;50.942;4.016;2022-11-25T07:22:20;9.40;99.90
52273;DHT22;38227;50.942;4.016;2022-11-25T07:24:58;9.40;99.90
52273;DHT22;38227;50.942;4.016;2022-11-25T07:27:26;9.40;99.90
52273;DHT22;38227;50.942;4.016;2022-11-25T07:29:56;9.40;99.90
52273;DHT22;38227;50.942;4.016;2022-11-25T07:32:27;9.40;99.90
52273;DHT22;38227;50.942;4.016;2022-11-25T07:35:00;9.40;99.90
52273;DHT22;38227;50.942;4.016;2022-11-25T07:37:34;9.40;99.90
52273;DHT22;38227;50.942;4.016;2022-11-25T07:40:03;9.30;99.90
52273;DHT22;38227;50.942;4.016;2022-11-25T07:42:34;9.30;99.90
52273;DHT22;38227;50.942;4.016;2022-11-25T07:45:04;9.30;99.90
52273;DHT22;38227;50.942;4.016;2022-11-25T07:47:35;9.30;99.90
52273;DHT22;38227;50.942;4.016;2022-11-25T07:50:06;9.30;99.90
52273;DHT22;38227;50.942;4.016;2022-11-25T07:52:40;9.40;99.90
52273;DHT22;38227;50.942;4.016;2022-11-25T07:55:16;9.70;99.90
52273;DHT22;38227;50.942;4.016;2022-11-25T07:57:51;9.90;99.90
52273;DHT22;38227;50.942;4.016;2022-11-25T08:00:26;10.10;99.90
52273;DHT22;38227;50.942;4.016;2022-11-25T08:03:04;10.30;99.90
52273;DHT22;38227;50.942;4.016;2022-11-25T08:05:39;10.60;99.90
52273;DHT22;38227;50.942;4.016;2022-11-25T08:08:10;10.90;99.90
52273;DHT22;38227;50.942;4.016;2022-11-25T08:10:49;11.00;99.90
52273;DHT22;38227;50.942;4.016;2022-11-25T08:13:37;11.30;99.90
52273;DHT22;38227;50.942;4.016;2022-11-25T08:16:13;11.20;99.90
52273;DHT22;38227;50.942;4.016;2022-11-25T08:19:06;11.00;99.90
52273;DHT22;38227;50.942;4.016;2022-11-25T08:21:36;10.70;99.90
52273;DHT22;38227;50.942;4.016;2022-11-25T08:24:05;10.50;99.90
52273;DHT22;38227;50.942;4.016;2022-11-25T08:26:36;10.30;99.90
52273;DHT22;38227;50.942;4.016;2022-11-25T08:29:07;10.30;99.90
52273;DHT22;38227;50.942;4.016;2022-11-25T08:31:54;10.30;99.90
52273;DHT22;38227;50.942;4.016;2022-11-25T08:34:25;10.20;99.90
52273;DHT22;38227;50.942;4.016;2022-11-25T08:36:57;10.20;99.90
52273;DHT22;38227;50.942;4.016;2022-11-25T08:39:29;10.20;99.90
52273;DHT22;38227;50.942;4.016;2022-11-25T08:42:10;10.30;99.90
52273;DHT22;38227;50.942;4.016;2022-11-25T08:44:40;10.30;99.90
52273;DHT22;38227;50.942;4.016;2022-11-25T08:47:13;10.40;99.90
52273;DHT22;38227;50.942;4.016;2022-11-25T08:49:43;10.50;99.90
52273;DHT22;38227;50.942;4.016;2022-11-25T08:52:14;10.40;99.90
52273;DHT22;38227;50.942;4.016;2022-11-25T08:54:46;10.40;99.90
52273;DHT22;38227;50.942;4.016;2022-11-25T08:57:15;10.40;99.90
52273;DHT22;38227;50.942;4.016;2022-11-25T08:59:45;10.30;99.90
52273;DHT22;38227;50.942;4.016;2022-11-25T09:02:16;10.30;99.90
52273;DHT22;38227;50.942;4.016;2022-11-25T09:04:45;10.20;99.90
52273;DHT22;38227;50.942;4.016;2022-11-25T09:07:13;10.20;99.90
52273;DHT22;38227;50.942;4.016;2022-11-25T09:09:45;10.40;99.90
52273;DHT22;38227;50.942;4.016;2022-11-25T09:12:14;10.50;99.90
52273;DHT22;38227;50.942;4.016;2022-11-25T09:14:53;10.60;99.90
52273;DHT22;38227;50.942;4.016;2022-11-25T09:17:21;11.10;99.90
52273;DHT22;38227;50.942;4.016;2022-11-25T09:19:50;11.60;99.90
52273;DHT22;38227;50.942;4.016;2022-11-25T09:22:18;12.20;99.90
52273;DHT22;38227;50.942;4.016;2022-11-25T09:24:47;12.20;99.90
52273;DHT22;38227;50.942;4.016;2022-11-25T09:27:16;12.00;99.90
52273;DHT22;38227;50.942;4.016;2022-11-25T09:29:46;11.90;99.90
52273;DHT22;38227;50.942;4.016;2022-11-25T09:32:16;11.80;99.90
52273;DHT22;38227;50.942;4.016;2022-11-25T09:34:46;11.70;99.90
52273;DHT22;38227;50.942;4.016;2022-11-25T09:37:14;11.80;99.90
52273;DHT22;38227;50.942;4.016;2022-11-25T09:39:42;11.90;99.90
52273;DHT22;38227;50.942;4.016;2022-11-25T09:47:01;11.80;99.90
52273;DHT22;38227;50.942;4.016;2022-11-25T09:49:54;11.60;99.90
52273;DHT22;38227;50.942;4.016;2022-11-25T09:55:44;11.50;99.90
52273;DHT22;38227;50.942;4.016;2022-11-25T09:58:41;11.40;99.90
52273;DHT22;38227;50.942;4.016;2022-11-25T10:01:24;11.30;99.90
52273;DHT22;38227;50.942;4.016;2022-11-25T10:04:33;11.30;99.90
52273;DHT22;38227;50.942;4.016;2022-11-25T10:07:13;11.30;99.90
52273;DHT22;38227;50.942;4.016;2022-11-25T10:10:21;11.50;99.90
52273;DHT22;38227;50.942;4.016;2022-11-25T10:12:55;11.60;99.90
52273;DHT22;38227;50.942;4.016;2022-11-25T10:15:31;11.60;99.90
52273;DHT22;38227;50.942;4.016;2022-11-25T10:18:04;11.70;99.90
52273;DHT22;38227;50.942;4.016;2022-11-25T10:20:37;11.80;99.90
52273;DHT22;38227;50.942;4.016;2022-11-25T10:23:47;11.70;99.90
52273;DHT22;38227;50.942;4.016;2022-11-25T10:26:41;11.80;99.90
52273;DHT22;38227;50.942;4.016;2022-11-25T10:29:33;11.80;99.90
52273;DHT22;38227;50.942;4.016;2022-11-25T10:32:32;11.80;99.90
52273;DHT22;38227;50.942;4.016;2022-11-25T10:35:11;11.90;99.90
52273;DHT22;38227;50.942;4.016;2022-11-25T10:37:43;11.80;99.90
52273;DHT22;38227;50.942;4.016;2022-11-25T10:40:17;11.70;99.90
52273;DHT22;38227;50.942;4.016;2022-11-25T10:42:54;11.70;99.90
52273;DHT22;38227;50.942;4.016;2022-11-25T10:45:28;11.80;99.90
52273;DHT22;38227;50.942;4.016;2022-11-25T10:48:21;11.70;99.90
52273;DHT22;38227;50.942;4.016;2022-11-25T10:54:17;11.80;99.90
52273;DHT22;38227;50.942;4.016;2022-11-25T10:57:27;11.90;99.90
52273;DHT22;38227;50.942;4.016;2022-11-25T11:00:00;12.00;99.90
52273;DHT22;38227;50.942;4.016;2022-11-25T11:02:54;12.10;99.90
52273;DHT22;38227;50.942;4.016;2022-11-25T11:05:45;12.10;99.90
52273;DHT22;38227;50.942;4.016;2022-11-25T11:08:37;12.20;99.90
52273;DHT22;38227;50.942;4.016;2022-11-25T11:11:32;12.20;99.90
52273;DHT22;38227;50.942;4.016;2022-11-25T11:14:27;12.30;99.90
52273;DHT22;38227;50.942;4.016;2022-11-25T11:16:57;12.30;99.90
52273;DHT22;38227;50.942;4.016;2022-11-25T11:19:39;12.30;99.90
52273;DHT22;38227;50.942;4.016;2022-11-25T11:22:16;12.50;99.90
52273;DHT22;38227;50.942;4.016;2022-11-25T11:24:46;12.60;99.90
52273;DHT22;38227;50.942;4.016;2022-11-25T11:27:23;12.70;99.90
52273;DHT22;38227;50.942;4.016;2022-11-25T11:30:14;12.80;99.90
52273;DHT22;38227;50.942;4.016;2022-11-25T11:33:06;12.80;99.90
52273;DHT22;38227;50.942;4.016;2022-11-25T11:38:55;12.80;99.90
52273;DHT22;38227;50.942;4.016;2022-11-25T11:48:37;13.20;99.90
52273;DHT22;38227;50.942;4.016;2022-11-25T11:54:33;13.10;99.90
52273;DHT22;38227;50.942;4.016;2022-11-25T12:00:19;13.20;99.90
52273;DHT22;38227;50.942;4.016;2022-11-25T12:03:21;13.30;99.90
52273;DHT22;38227;50.942;4.016;2022-11-25T12:05:55;13.50;99.90
52273;DHT22;38227;50.942;4.016;2022-11-25T12:08:50;13.40;99.90
52273;DHT22;38227;50.942;4.016;2022-11-25T12:11:25;13.50;99.90
52273;DHT22;38227;50.942;4.016;2022-11-25T12:14:03;13.50;99.90
52273;DHT22;38227;50.942;4.016;2022-11-25T12:16:43;13.50;99.90
52273;DHT22;38227;50.942;4.016;2022-11-25T12:19:32;13.50;99.90
52273;DHT22;38227;50.942;4.016;2022-11-25T12:25:23;13.50;99.90
52273;DHT22;38227;50.942;4.016;2022-11-25T12:27:57;13.60;99.90
52273;DHT22;38227;50.942;4.016;2022-11-25T12:30:36;13.60;99.90
52273;DHT22;38227;50.942;4.016;2022-11-25T12:33:23;13.70;99.90
52273;DHT22;38227;50.942;4.016;2022-11-25T12:39:37;13.60;99.90
52273;DHT22;38227;50.942;4.016;2022-11-25T12:42:15;13.50;99.90
52273;DHT22;38227;50.942;4.016;2022-11-25T12:47:57;13.90;99.90
52273;DHT22;38227;50.942;4.016;2022-11-25T13:12:11;13.80;99.90
52273;DHT22;38227;50.942;4.016;2022-11-25T13:18:08;13.90;99.90
52273;DHT22;38227;50.942;4.016;2022-11-25T13:23:49;13.80;99.90
52273;DHT22;38227;50.942;4.016;2022-11-25T13:26:50;13.60;99.90
52273;DHT22;38227;50.942;4.016;2022-11-25T13:29:51;13.60;99.90
52273;DHT22;38227;50.942;4.016;2022-11-25T13:32:28;13.60;99.90
52273;DHT22;38227;50.942;4.016;2022-11-25T13:38:34;13.60;99.90
52273;DHT22;38227;50.942;4.016;2022-11-25T13:41:41;13.50;99.90
52273;DHT22;38227;50.942;4.016;2022-11-25T13:44:19;13.40;99.90
52273;DHT22;38227;50.942;4.016;2022-11-25T13:47:23;13.40;99.90
52273;DHT22;38227;50.942;4.016;2022-11-25T13:50:05;13.50;99.90
52273;DHT22;38227;50.942;4.016;2022-11-25T13:52:55;13.70;99.90
52273;DHT22;38227;50.942;4.016;2022-11-25T13:55:36;13.90;99.90
52273;DHT22;38227;50.942;4.016;2022-11-25T13:59:12;14.00;99.90
52273;DHT22;38227;50.942;4.016;2022-11-25T14:01:30;13.90;99.90
52273;DHT22;38227;50.942;4.016;2022-11-25T14:03:59;13.90;99.90
52273;DHT22;38227;50.942;4.016;2022-11-25T14:13:10;13.80;99.90
52273;DHT22;38227;50.942;4.016;2022-11-25T14:25:29;13.90;99.90
52273;DHT22;38227;50.942;4.016;2022-11-25T14:31:04;13.80;99.90
52273;DHT22;38227;50.942;4.016;2022-11-25T14:33:44;13.90;99.90
52273;DHT22;38227;50.942;4.016;2022-11-25T14:36:21;13.80;99.90
52273;DHT22;38227;50.942;4.016;2022-11-25T14:38:57;13.80;99.90
52273;DHT22;38227;50.942;4.016;2022-11-25T14:47:46;13.90;99.90
52273;DHT22;38227;50.942;4.016;2022-11-25T14:50:38;13.90;99.90
52273;DHT22;38227;50.942;4.016;2022-11-25T14:53:09;13.80;99.90
52273;DHT22;38227;50.942;4.016;2022-11-25T14:55:39;13.70;99.90
52273;DHT22;38227;50.942;4.016;2022-11-25T14:58:11;13.70;99.90
52273;DHT22;38227;50.942;4.016;2022-11-25T15:00:59;13.60;99.90
52273;DHT22;38227;50.942;4.016;2022-11-25T15:03:30;13.60;99.90
52273;DHT22;38227;50.942;4.016;2022-11-25T15:06:03;13.60;99.90
52273;DHT22;38227;50.942;4.016;2022-11-25T15:08:44;13.40;99.90
52273;DHT22;38227;50.942;4.016;2022-11-25T15:11:20;13.40;99.90
52273;DHT22;38227;50.942;4.016;2022-11-25T15:13:57;13.10;99.90
52273;DHT22;38227;50.942;4.016;2022-11-25T15:16:34;13.20;99.90
52273;DHT22;38227;50.942;4.016;2022-11-25T15:19:17;13.30;99.90
52273;DHT22;38227;50.942;4.016;2022-11-25T15:21:55;13.20;99.90
52273;DHT22;38227;50.942;4.016;2022-11-25T15:24:31;13.00;99.90
52273;DHT22;38227;50.942;4.016;2022-11-25T15:27:15;13.00;99.90
52273;DHT22;38227;50.942;4.016;2022-11-25T15:29:47;12.90;99.90
52273;DHT22;38227;50.942;4.016;2022-11-25T15:32:31;12.90;99.90
52273;DHT22;38227;50.942;4.016;2022-11-25T15:35:06;12.90;99.90
52273;DHT22;38227;50.942;4.016;2022-11-25T15:37:36;12.80;99.90
52273;DHT22;38227;50.942;4.016;2022-11-25T15:40:39;12.80;99.90
52273;DHT22;38227;50.942;4.016;2022-11-25T15:43:24;12.60;99.90
52273;DHT22;38227;50.942;4.016;2022-11-25T15:46:01;12.50;99.90
52273;DHT22;38227;50.942;4.016;2022-11-25T15:48:35;12.40;99.90
52273;DHT22;38227;50.942;4.016;2022-11-25T15:51:30;12.30;99.90
52273;DHT22;38227;50.942;4.016;2022-11-25T15:54:37;12.30;99.90
52273;DHT22;38227;50.942;4.016;2022-11-25T15:57:30;12.20;99.90
52273;DHT22;38227;50.942;4.016;2022-11-25T16:00:19;12.00;99.90
52273;DHT22;38227;50.942;4.016;2022-11-25T16:02:52;12.00;99.90
52273;DHT22;38227;50.942;4.016;2022-11-25T16:05:27;11.80;99.90
52273;DHT22;38227;50.942;4.016;2022-11-25T16:08:22;11.70;99.90
52273;DHT22;38227;50.942;4.016;2022-11-25T16:10:53;11.50;99.90
52273;DHT22;38227;50.942;4.016;2022-11-25T16:13:41;11.50;99.90
52273;DHT22;38227;50.942;4.016;2022-11-25T16:16:31;11.60;99.90
52273;DHT22;38227;50.942;4.016;2022-11-25T16:22:00;11.60;99.90
52273;DHT22;38227;50.942;4.016;2022-11-25T16:24:55;11.50;99.90
52273;DHT22;38227;50.942;4.016;2022-11-25T16:27:25;11.20;99.90
52273;DHT22;38227;50.942;4.016;2022-11-25T16:30:15;11.20;99.90
52273;DHT22;38227;50.942;4.016;2022-11-25T16:32:43;11.10;99.90
52273;DHT22;38227;50.942;4.016;2022-11-25T16:35:17;11.10;99.90
52273;DHT22;38227;50.942;4.016;2022-11-25T16:37:48;11.20;99.90
52273;DHT22;38227;50.942;4.016;2022-11-25T16:40:17;11.20;99.90
52273;DHT22;38227;50.942;4.016;2022-11-25T16:42:48;11.10;99.90
52273;DHT22;38227;50.942;4.016;2022-11-25T16:45:25;11.20;99.90
52273;DHT22;38227;50.942;4.016;2022-11-25T16:47:53;11.30;99.90
52273;DHT22;38227;50.942;4.016;2022-11-25T16:50:22;11.40;99.90
52273;DHT22;38227;50.942;4.016;2022-11-25T16:52:50;11.20;99.90
52273;DHT22;38227;50.942;4.016;2022-11-25T16:55:19;11.10;99.90
52273;DHT22;38227;50.942;4.016;2022-11-25T16:57:47;11.00;99.90
52273;DHT22;38227;50.942;4.016;2022-11-25T17:00:19;11.10;99.90
52273;DHT22;38227;50.942;4.016;2022-11-25T17:02:47;11.10;99.90
52273;DHT22;38227;50.942;4.016;2022-11-25T17:05:22;11.10;99.90
52273;DHT22;38227;50.942;4.016;2022-11-25T17:07:51;11.00;99.90
52273;DHT22;38227;50.942;4.016;2022-11-25T17:10:26;11.00;99.90
52273;DHT22;38227;50.942;4.016;2022-11-25T17:13:00;10.90;99.90
52273;DHT22;38227;50.942;4.016;2022-11-25T17:15:48;10.80;99.90
52273;DHT22;38227;50.942;4.016;2022-11-25T17:18:16;10.80;99.90
52273;DHT22;38227;50.942;4.016;2022-11-25T17:20:45;10.80;99.90
52273;DHT22;38227;50.942;4.016;2022-11-25T17:23:16;10.80;99.90
52273;DHT22;38227;50.942;4.016;2022-11-25T17:25:47;10.70;99.90
52273;DHT22;38227;50.942;4.016;2022-11-25T17:28:17;10.70;99.90
52273;DHT22;38227;50.942;4.016;2022-11-25T17:30:50;10.70;99.90
52273;DHT22;38227;50.942;4.016;2022-11-25T17:33:29;10.70;99.90
52273;DHT22;38227;50.942;4.016;2022-11-25T17:35:58;10.70;99.90
52273;DHT22;38227;50.942;4.016;2022-11-25T17:38:26;10.50;99.90
52273;DHT22;38227;50.942;4.016;2022-11-25T17:40:56;10.50;99.90
52273;DHT22;38227;50.942;4.016;2022-11-25T17:43:25;10.50;99.90
52273;DHT22;38227;50.942;4.016;2022-11-25T17:45:53;10.40;99.90
52273;DHT22;38227;50.942;4.016;2022-11-25T17:48:22;10.40;99.90
52273;DHT22;38227;50.942;4.016;2022-11-25T17:50:50;10.40;99.90
52273;DHT22;38227;50.942;4.016;2022-11-25T17:53:28;10.30;99.90
52273;DHT22;38227;50.942;4.016;2022-11-25T17:55:58;10.30;99.90
52273;DHT22;38227;50.942;4.016;2022-11-25T17:58:30;10.30;99.90
52273;DHT22;38227;50.942;4.016;2022-11-25T18:01:00;10.20;99.90
52273;DHT22;38227;50.942;4.016;2022-11-25T18:03:32;10.20;99.90
52273;DHT22;38227;50.942;4.016;2022-11-25T18:06:02;10.20;99.90
52273;DHT22;38227;50.942;4.016;2022-11-25T18:08:31;10.20;99.90
52273;DHT22;38227;50.942;4.016;2022-11-25T18:11:04;10.10;99.90
52273;DHT22;38227;50.942;4.016;2022-11-25T18:13:46;10.20;99.90
52273;DHT22;38227;50.942;4.016;2022-11-25T18:16:16;10.10;99.90
52273;DHT22;38227;50.942;4.016;2022-11-25T18:18:48;10.10;99.90